Forside
METAR-TAF:

METAR-TAF

Lufthavne :

Madrid-Barajas Lufthavn

Madrid, Spanien

Breddekreds: 40-27N, længdekreds: 003-33W, højde: 609 m

Aktuelle vejr

Denne rapport blev lavet for 26 minutter siden, kl. 02:00 UTC
Vind 3 kt fra nord
Temperatur 3°C
Fugtighed 87%
Tryk 1026 hPa
Sigt 10 km eller mere
ingen skyer under 1500m og ingen cumulonimbus

METAR: LEMD 210200Z 36003KT CAVOK 03/01 Q1026 NOSIG

Tid: 03:26 (02:26 UTC)

Vejrudsigter

Denne rapport blev lavet for 3 timer og 26 minutter siden, kl. 23:00 UTC
Foreløbig gælder fra 21 på 00 UTC til 22 på 06 UTC
Vind 5 kt fra nordnordvest
Sigt 10 km eller mere
ingen skyer under 1500m og ingen cumulonimbus
Midlertidig
fra 21 på 12 UTC til 21 på 19 UTC
Vind 7 kt fra sydsydvest

TAF: LEMD 202300Z 2100/2206 33005KT CAVOK TX19/2115Z TNM00/2106Z TEMPO 2112/2119 20007KT

Vejrobservationer og prognoser fra mere end 4000 lufthavne (METAR og TAF).

De gule og røde prikker repræsenterer de meteorologiske stationer.

Flyt musen over at se navnet på stationen.

Så klik over at se vejr observationer og prognoser.

At skifte det kort: Klik på de grønne knapper med et sort kors for at zoome ind; på den grønne knap med en bindestreg for at zoome ud; eller på de grønne pile for tilstødende kort.


METAR-TAF: